Weather observations for the past three days for
Crawfordsville Municipal Airport
Metric (Imperial)
Date Time (edt) Wind (kph) Vis. (km) Weather Sky Cond. Temperature (ºC) Relative Humidity Wind Chill (°C) Heat Index (°C) Pressure Precipitation (cm)
Air Dwpt 6 hour altimeter (cm) sea level (mb) 1 hr 3 hr 6 hr
Max. Min.
04 10:35 W 7 16.09 Fair CLR 28.9 22.3 68% 32 76.23 0.0
04 10:15 W 9 16.09 Fair CLR 28.1 22.1 70% 31 76.25 0.0
04 09:55 SW 13 16.09 Fair CLR 27.1 21.8 73% 29 76.23 0.0
04 09:35 SW 11 16.09 Fair CLR 26.2 21.8 77% 28 76.23 0.0
04 09:15 SW 11 16.09 Fair CLR 25.3 21.7 81% 26 76.23 0.0
04 08:55 SW 7 16.09 Fair CLR 24.5 21.5 83% 25 76.25 0.0
04 08:35 Calm 16.09 Fair CLR 23.3 21.2 88% 76.25 0.0
04 08:15 Calm 16.09 Fair CLR 21.7 20.5 93% 76.2 0.0
04 07:55 Calm 16.09 Fair CLR 22.1 20.1 22.8 20.7 88% 76.17 0.0
04 07:35 SW 7 16.09 Fair CLR 21.8 20.1 90% 76.17 0.0
04 07:15 SW 9 16.09 Fair CLR 21.5 20 91% 76.15 0.0
04 06:55 SW 7 16.09 Fair CLR 21.6 20 91% 76.15 0.0
04 06:35 SW 7 16.09 Fair CLR 21.5 20 91% 76.15 0.0
04 06:15 SW 6 16.09 Fair CLR 20.7 19.6 93% 76.15 0.0
04 05:55 Calm 16.09 Fair CLR 21 19.9 93% 76.15 0.0
04 05:35 SW 7 16.09 Fair CLR 21.5 20.1 92% 76.15 0.0
04 05:15 S 6 16.09 Fair CLR 21.3 20.1 93% 76.15 0.0
04 04:55 SW 6 16.09 Fair CLR 21.7 20.5 93% 76.12 0.0
04 04:35 SW 6 16.09 Fair CLR 21.2 20.3 95% 76.12 0.0
04 04:15 Calm 16.09 Fair CLR 21.6 20.8 95% 76.12 0.0
04 03:55 Calm 16.09 Fair CLR 21.3 20.5 95% 76.15 0.0
04 03:35 Calm 16.09 Fair CLR 21.5 20.6 95% 76.15 0.0
04 03:15 Calm 16.09 Fair CLR 22 20.8 93% 76.15 0.0
04 02:55 Calm 16.09 Fair CLR 22.1 21 94% 76.17 0.0
04 02:35 Calm 16.09 Fair CLR 22.1 20.9 93% 76.17 0.0
04 02:15 Calm 16.09 Fair CLR 22.3 20.9 92% 76.17 0.0
04 01:55 Calm 16.09 Fair CLR 22.7 21.3 28.5 22.7 92% 76.17 0.0
04 01:35 Calm 16.09 Partly Cloudy SCT070 23.8 21.6 88% 76.17 0.0
04 01:15 Calm 16.09 Partly Cloudy SCT070 24 21.9 88% 24 76.17 0.0
04 00:55 Calm 16.09 Mostly Cloudy BKN070 BKN090 23.6 21.9 90% 76.17 0.0
04 00:35 Calm 16.09 Overcast BKN070 OVC090 23.7 22 90% 76.17 0.0
04 00:15 Calm 16.09 Mostly Cloudy BKN070 23.7 22 90% 76.15 0.0
03 23:55 Calm 16.09 Fair CLR 23 21.6 92% 76.17 0.0
03 23:35 SE 6 16.09 Fair CLR 24 22.2 90% 24 76.15 0.0
03 23:15 SE 7 16.09 Fair CLR 23.6 22.1 91% 76.17 0.0
03 22:55 Calm 16.09 Fair CLR 23.3 22 92% 76.17 0.0
03 22:35 SE 6 16.09 Fair CLR 23.4 22 92% 76.17 0.0
03 22:15 Calm 16.09 Fair CLR 23.6 22 91% 76.15 0.0
03 21:55 Calm 16.09 Fair CLR 24.3 22.5 90% 24 76.15 0.0
03 21:35 SE 6 16.09 Fair CLR 24.8 22.6 88% 25 76.15 0.0
03 21:15 SE 7 16.09 Fair CLR 24.5 22.7 90% 25 76.12 0.0
03 20:55 Calm 16.09 Fair CLR 24.6 23 91% 25 76.12 0.0
03 20:35 Calm 16.09 Fair CLR 25 23.1 89% 26 76.12 0.0
03 20:15 Calm 16.09 Fair CLR 26.4 23.2 83% 29 76.1 0.0
03 19:55 Calm 16.09 Fair CLR 28.6 23.3 32.5 28.6 73% 32 76.1 0.0
03 19:35 SW 6 16.09 Fair CLR 29.8 22.9 67% 34 76.1 0.0
03 19:15 SW 7 16.09 Fair CLR 30.6 23.3 65% 35 76.1 0.0
03 18:55 SW 6 16.09 Fair CLR 31.2 23.9 65% 37 76.1 0.0
03 18:35 W 6 16.09 Fair CLR 31.7 23.2 61% 37 76.1 0.0
03 18:15 W 7 16.09 Fair CLR 32 22.3 56% 36 76.1 0.0
03 17:55 W 11 16.09 Fair CLR 32.1 22.6 57% 36 76.1 0.0
03 17:35 SW 9 16.09 Fair CLR 32.1 22.1 55% 36 76.1 0.0
03 17:15 SW 11 16.09 Fair CLR 32.3 21.8 54% 36 76.1 0.0
03 16:55 W 13 16.09 Fair CLR 32.5 21.9 54% 36 76.1 0.0
03 16:35 W 13 16.09 Fair CLR 32.4 21.8 54% 36 76.12 0.0
03 16:15 W 15 16.09 Fair CLR 32.5 22 54% 36 76.15 0.0
03 15:55 SW 11 16.09 Fair CLR 32.5 22.1 54% 36 76.17 0.0
03 15:35 W 15 16.09 Fair CLR 32.5 22 54% 36 76.17 0.0
03 15:15 W 13 16.09 Fair CLR 32.3 21.6 53% 36 76.17 0.0
03 14:55 W 15 16.09 Partly Cloudy SCT080 32.4 22.1 55% 36 76.2 0.0
03 14:35 SW 13 16.09 Partly Cloudy SCT080 32.1 22.5 57% 36 76.2 0.0
03 14:15 W 19 16.09 Fair CLR 31.9 22.5 58% 36 76.2 0.0
03 13:55 W 19 16.09 Fair CLR 31.6 22 31.6 21.5 57% 35 76.23 0.0
03 13:35 W 20 G 26 16.09 Fair CLR 31.3 22.2 58% 35 76.23 0.0
03 13:15 SW 17 16.09 Fair CLR 31.2 22.3 59% 35 76.23 0.0
03 12:55 W 19 16.09 Fair CLR 31 22.6 61% 35 76.25 0.0
03 12:35 SW 17 16.09 Fair CLR 30.6 22.6 62% 35 76.28 0.0
03 12:15 SW 15 16.09 Fair CLR 30.2 22.5 63% 34 76.28 0.0
03 11:55 SW 13 16.09 Fair CLR 29.8 22.3 64% 33 76.28 0.0
03 11:35 SW 15 16.09 Fair CLR 29.7 21.9 63% 33 76.28 0.0
03 11:15 SW 15 16.09 Fair CLR 29.2 22.3 66% 32 76.28 0.0
03 10:55 SW 11 16.09 Fair CLR 28.6 22.2 68% 32 76.28 0.0
03 10:35 SW 15 16.09 Fair CLR 27.8 21.9 70% 30 76.25 0.0
03 10:15 SW 13 16.09 Fair CLR 27.4 22 72% 30 76.28 0.0
03 09:55 SW 15 16.09 Fair CLR 26.6 21.6 74% 28 76.28 0.0
03 09:35 SW 13 16.09 Fair CLR 26 21.2 75% 27 76.28 0.0
03 09:15 SW 13 16.09 Fair CLR 25.2 21.2 79% 26 76.3 0.0
03 08:55 SW 9 16.09 Fair CLR 24.2 21 82% 25 76.3 0.0
03 08:35 SW 7 16.09 Fair CLR 23.3 20.6 85% 76.3 0.0
03 08:15 SW 6 16.09 Fair CLR 22.2 20.2 89% 76.28 0.0
03 07:55 Calm 16.09 Fair CLR 21.5 19.6 23.6 21.2 89% 76.28 0.0
03 07:35 Calm 16.09 Fair CLR 21.3 19.5 90% 76.28 0.0
03 07:15 SW 6 16.09 Fair CLR 21.8 19.7 88% 76.28 0.0
03 06:55 SW 7 16.09 Fair CLR 21.8 19.8 88% 76.25 0.0
03 06:35 SW 9 16.09 Fair CLR 22 19.8 87% 76.25 0.0
03 06:15 SW 9 16.09 Fair CLR 22 19.8 87% 76.25 0.0
03 05:55 SW 7 16.09 Fair CLR 21.8 19.7 88% 76.25 0.0
03 05:35 SW 6 16.09 Fair CLR 22 19.8 87% 76.25 0.0
03 05:15 SW 7 16.09 Fair CLR 22 20 88% 76.25 0.0
03 04:55 SW 7 16.09 Fair CLR 22 20 88% 76.25 0.0
03 04:35 SW 7 16.09 Fair CLR 22.1 20 88% 76.25 0.0
03 04:15 SW 6 16.09 Fair CLR 22 20 88% 76.25 0.0
03 03:55 SW 6 16.09 Fair CLR 22.3 20.2 88% 76.25 0.0
03 03:35 SW 6 16.09 Fair CLR 22.4 20.3 88% 76.25 0.0
03 03:15 SW 7 16.09 Fair CLR 22.8 20.5 87% 76.23 0.0
03 02:55 SW 6 16.09 Fair CLR 23 20.6 86% 76.25 0.0
03 02:35 SW 7 16.09 Fair CLR 23.2 20.8 86% 76.25 0.0
03 02:15 SW 7 16.09 Fair CLR 23.5 21 86% 76.25 0.0
03 01:55 SW 7 16.09 Fair CLR 23.5 21 28.5 23.3 86% 76.23 0.0
03 01:35 SW 7 16.09 Fair CLR 23.5 21.1 86% 76.23 0.0
03 01:15 SW 7 16.09 Fair CLR 23.5 21.3 88% 76.2 0.0
03 00:55 Calm 16.09 Fair CLR 23.4 21.5 89% 76.2 0.0
03 00:35 S 7 16.09 Fair CLR 23.7 21.7 89% 76.2 0.0
03 00:15 S 7 16.09 Fair CLR 23.7 21.8 89% 76.2 0.0
02 23:55 S 7 16.09 Fair CLR 24 22 89% 24 76.2 0.0
02 23:35 Calm 16.09 Fair CLR 23.8 22 90% 76.17 0.0
02 23:15 Calm 16.09 Fair CLR 24.2 22.2 89% 24 76.2 0.0
02 22:55 Calm 16.09 Fair CLR 23.5 22.1 92% 76.2 0.0
02 22:35 Calm 16.09 Fair CLR 23.9 22.5 92% 23 76.2 0.0
02 22:15 Calm 16.09 Fair CLR 23.3 22.3 94% 76.2 0.0
02 21:55 Calm 16.09 Fair CLR 24.1 23 94% 23 76.2 0.0
02 21:35 Calm 16.09 Fair CLR 24.1 22.9 93% 24 76.17 0.0
02 21:15 Calm 16.09 Fair CLR 24.4 23 92% 24 76.17 0.0
02 20:55 Calm 16.09 Fair CLR 25.9 23.2 85% 28 76.17 0.0
02 20:35 Calm 16.09 Fair CLR 26.2 23.5 85% 28 76.15 0.0
02 20:15 Calm 16.09 Fair CLR 27.5 23.5 79% 31 76.17 0.0
02 19:55 S 7 16.09 Fair CLR 28.6 23.5 32.5 28.6 74% 33 76.17 0.0
02 19:35 S 6 16.09 Fair CLR 29.7 24 71% 35 76.17 0.0
02 19:15 S 6 16.09 Fair CLR 30.5 23.1 65% 35 76.17 0.0
02 18:55 SW 9 16.09 Fair CLR 31 22.5 61% 35 76.17 0.0
02 18:35 SW 7 16.09 Fair CLR 31.3 22.5 60% 35 76.17 0.0
02 18:15 SW 11 16.09 Fair CLR 31.7 22.6 59% 36 76.17 0.0
02 17:55 SW 13 16.09 Fair CLR 31.8 22 56% 36 76.17 0.0
02 17:35 SW 17 16.09 Fair CLR 32 22.2 56% 36 76.17 0.0
02 17:15 SW 19 16.09 Fair CLR 32.1 22.5 57% 36 76.2 0.0
02 16:55 SW 17 16.09 Fair CLR 32.2 22.4 56% 36 76.2 0.0
02 16:35 SW 15 16.09 Fair CLR 32.4 22.7 57% 37 76.23 0.0
02 16:15 W 13 16.09 Fair CLR 32.5 22.4 55% 37 76.23 0.0
02 15:55 W 19 16.09 Fair CLR 32.3 22.3 56% 36 76.25 0.0
02 15:35 W 19 16.09 Fair CLR 32.1 22.4 57% 36 76.28 0.0
02 15:15 W 17 16.09 Fair CLR 32 22.2 56% 36 76.28 0.0
02 14:55 SW 13 16.09 Fair CLR 32.1 22.7 58% 37 76.28 0.0
02 14:35 W 19 16.09 Fair CLR 31.6 22 57% 35 76.28 0.0
02 14:15 SW 13 16.09 Fair CLR 31.5 22.3 58% 35 76.3 0.0
02 13:55 SW 13 16.09 Fair CLR 31.4 22.4 31.4 21.5 59% 35 76.3 0.0
02 13:35 W 17 G 26 16.09 Fair CLR 31.1 22.4 60% 35 76.3 0.0
02 13:15 SW 19 16.09 Fair CLR 30.9 22.5 61% 35 76.33 0.0
02 12:55 W 15 16.09 Fair CLR 30.6 22.5 62% 34 76.33 0.0
02 12:35 W 15 16.09 Fair CLR 30.1 22.3 63% 34 76.33 0.0
02 12:15 W 17 G 26 16.09 Fair CLR 29.8 22.4 65% 33 76.33 0.0
02 11:55 SW 17 16.09 Fair CLR 29.3 22.4 66% 33 76.35 0.0
02 11:35 SW 15 16.09 Fair CLR 28.8 22.2 68% 32 76.35 0.0
02 11:15 SW 17 16.09 Fair CLR 28.5 22 68% 31 76.35 0.0
02 10:55 SW 17 16.09 Fair CLR 28.1 22.1 70% 31 76.35 0.0
02 10:35 SW 11 16.09 Fair CLR 27.7 22 71% 30 76.35 0.0
02 10:15 SW 17 16.09 Fair CLR 27.1 21.7 72% 29 76.35 0.0
02 09:55 SW 13 16.09 Fair CLR 26.6 21.7 75% 28 76.35 0.0
02 09:35 SW 13 16.09 Fair CLR 25.8 21.6 78% 27 76.38 0.0
02 09:15 SW 7 16.09 Fair CLR 24.8 21.1 80% 26 76.38 0.0
02 08:55 SW 6 16.09 Fair CLR 23.8 20.9 84% 76.38 0.0
02 08:35 SW 7 16.09 Fair CLR 23 20.4 85% 76.38 0.0
02 08:15 SW 6 16.09 Fair CLR 22.1 20 88% 76.38 0.0
02 07:55 SW 7 16.09 Fair CLR 21.5 19.5 22.8 20.8 88% 76.38 0.0
02 07:35 SW 9 16.09 Fair CLR 20.8 19.1 90% 76.38 0.0
02 07:15 SW 7 16.09 Fair CLR 20.8 19.1 90% 76.35 0.0
02 06:55 SW 7 16.09 Fair CLR 21 19.1 89% 76.35 0.0
02 06:35 SW 6 16.09 Fair CLR 20.8 19 90% 76.33 0.0
02 06:15 SW 7 16.09 Fair CLR 21 19.1 89% 76.33 0.0
02 05:55 SW 6 16.09 Fair CLR 21 19.2 90% 76.33 0.0
02 05:35 SW 7 16.09 Fair CLR 21.1 19.2 89% 76.3 0.0
02 05:15 SW 7 16.09 Fair CLR 21.2 19.3 89% 76.3 0.0
02 04:55 SW 6 16.09 Fair CLR 21.5 19.5 88% 76.28 0.0
02 04:35 SW 7 16.09 Fair CLR 21.5 19.5 88% 76.28 0.0
02 04:15 SW 6 16.09 Fair CLR 21.6 19.5 88% 76.3 0.0
02 03:55 SW 7 16.09 Fair CLR 21.6 19.5 88% 76.3 0.0
02 03:35 SW 7 16.09 Fair CLR 21.8 19.7 88% 76.28 0.0
02 03:15 S 6 16.09 Fair CLR 22.2 19.9 87% 76.3 0.0
02 02:55 SW 6 16.09 Fair CLR 22.1 19.9 87% 76.28 0.0
02 02:35 S 6 16.09 Fair CLR 22.2 20 87% 76.28 0.0
02 02:15 S 6 16.09 Fair CLR 22.7 20.2 86% 76.3 0.0
02 01:55 S 7 16.09 Fair CLR 22.8 20.3 28.5 21.6 86% 76.28 0.0
02 01:35 S 7 16.09 Fair CLR 23.1 20.6 86% 76.28 0.0
02 01:15 SW 7 16.09 Fair CLR 23 20.8 87% 76.28 0.0
02 00:55 SW 7 16.09 Fair CLR 23.2 21 88% 76.28 0.0
02 00:35 SW 7 16.09 Fair CLR 23.3 21 87% 76.28 0.0
02 00:15 SW 7 16.09 Fair CLR 22.4 20.7 90% 76.28 0.0
01 23:55 Calm 16.09 Fair CLR 22.1 21.1 94% 76.28 0.0
01 23:35 Calm 16.09 Fair CLR 21.8 21 95% 76.3 0.0
01 23:15 S 7 16.09 Fair CLR 21.7 21 96% 76.3 0.0
01 22:55 Calm 11.27 Partly Cloudy SCT090 22.2 21.5 96% 76.28 0.0
01 22:35 Calm 8.05 Fog/Mist CLR 22.2 21.5 96% 76.28 0.0
01 22:15 Calm 16.09 Fair CLR 22.5 21.6 95% 76.28 0.0
01 21:55 Calm 16.09 Fair CLR 23.1 22 94% 76.28 0.0
01 21:35 Calm 16.09 Fair CLR 23.5 21.7 90% 76.28 0.0
01 21:15 SW 6 16.09 Fair CLR 25.3 22.5 85% 26 76.25 0.0
01 20:55 SW 6 16.09 Partly Cloudy SCT080 25.8 22.7 83% 27 76.25 0.0
01 20:35 SW 6 16.09 Partly Cloudy SCT080 26.5 23 81% 29 76.25 0.0
01 20:15 SW 6 16.09 Mostly Cloudy BKN080 27.5 23.3 78% 31 76.25 0.0
01 19:55 Calm 16.09 Fair CLR 28.5 23.7 32.1 28.5 75% 33 76.25 0.0
01 19:35 SW 6 16.09 Fair CLR 29.2 23.7 72% 34 76.25 0.0
01 19:15 SW 7 16.09 Fair CLR 30.1 23.6 68% 35 76.25 0.0
01 18:55 SW 7 16.09 Fair CLR 30.9 23.3 64% 36 76.25 0.0
01 18:35 SW 7 16.09 Fair CLR 31.4 23 61% 36 76.25 0.0
01 18:15 SW 9 16.09 Fair CLR 31.5 22.6 59% 36 76.25 0.0
01 17:55 SW 13 16.09 Fair CLR 31.8 23 60% 37 76.25 0.0
01 17:35 SW 11 16.09 Fair CLR 32 22.8 58% 37 76.25 0.0
01 17:15 SW 11 16.09 Fair CLR 32 23.2 60% 37 76.25 0.0
01 16:55 W 17 16.09 Fair CLR 32.1 22.6 57% 36 76.25 0.0
01 16:35 W 15 16.09 Fair CLR 32 22.8 58% 37 76.25 0.0
01 16:15 W 15 16.09 Fair CLR 32 23 59% 37 76.28 0.0
01 15:55 SW 17 16.09 Fair CLR 31.7 22.8 59% 36 76.28 0.0
01 15:35 SW 15 16.09 Fair CLR 31.6 22.9 60% 36 76.28 0.0
01 15:15 SW 15 16.09 Fair CLR 31.5 22.7 60% 36 76.28 0.0
01 14:55 W 13 16.09 Fair CLR 31.3 22.4 59% 35 76.3 0.0
01 14:35 SW 15 16.09 Fair CLR 31 22.4 60% 35 76.3 0.0
01 14:15 SW 19 16.09 Fair CLR 30.8 22.7 62% 35 76.3 0.0
01 13:55 SW 15 16.09 Fair CLR 30.5 22.6 30.5 21.1 63% 34 76.33 0.0
01 13:35 W 15 16.09 Fair CLR 30.5 22.7 63% 35 76.33 0.0
01 13:15 W 15 16.09 Fair CLR 30 22.3 63% 34 76.35 0.0
01 12:55 W 13 16.09 Fair CLR 29.6 22.1 64% 33 76.35 0.0
01 12:35 W 11 16.09 Fair CLR 29.3 21.8 64% 32 76.35 0.0
01 12:15 W 15 16.09 Fair CLR 29.1 21.6 64% 32 76.35 0.0
01 11:55 SW 15 16.09 Fair CLR 28.5 21.6 66% 31 76.35 0.0
01 11:35 SW 13 16.09 Fair CLR 28.2 21.8 68% 31 76.38 0.0
01 11:15 SW 15 16.09 Fair CLR 27.5 21.1 68% 30 76.35 0.0
01 10:55 SW 19 16.09 Fair CLR 27.1 20.9 69% 29 76.35 0.0
Date Time (edt) Wind (kph) Vis. (km) Weather Sky Cond. Air Dwpt Max. Min. Relative Humidity Wind Chill (°C) Heat Index (°C) altimeter (cm) sea level (mb) 1 hr 3 hr 6 hr
6 hour
Temperature (ºC) Pressure Precipitation (cm)